Terminal Aerodrome Forecast
Issued by NWS Portland, OR

Home | Current Version | Previous Version | Text Only | Print | Product List | Glossary On
Versions: 1 2 3 4 5 6 7 8 9 10 11 12
000
FTUS46 KPQR 281736
TAFHIO
TAF
KHIO 281736Z 2818/2918 VRB03KT P6SM BKN040 BKN060
     FM282200 32006KT P6SM SCT060
     FM290800 VRB03KT P6SM BKN050 BKN100
     FM291400 19005KT P6SM -RA BKN035 OVC050=

USA.gov is the U.S. government's official web portal to all federal, state and local government web resources and services.